createdAt,value
2023-04-14T00:01:47.559Z,18.00
2023-04-14T00:04:14.754Z,21.38
2023-04-14T00:06:41.390Z,19.33
2023-04-14T00:09:07.988Z,18.40
2023-04-14T00:11:38.679Z,21.75
2023-04-14T00:14:05.987Z,21.05
2023-04-14T00:16:32.699Z,18.35
2023-04-14T00:18:59.343Z,19.88
2023-04-14T00:21:27.061Z,18.50
2023-04-14T00:23:53.458Z,20.52
2023-04-14T00:26:19.961Z,20.33
2023-04-14T00:28:47.990Z,20.02
2023-04-14T00:31:14.636Z,19.40
2023-04-14T00:33:41.187Z,17.65
2023-04-14T00:36:07.767Z,17.52
2023-04-14T00:38:34.172Z,16.95
2023-04-14T00:41:00.645Z,16.58
2023-04-14T00:43:27.139Z,20.05
2023-04-14T00:45:54.553Z,16.60
2023-04-14T00:48:21.120Z,17.65
2023-04-14T00:50:47.705Z,19.08
2023-04-14T00:53:14.656Z,22.50
2023-04-14T00:55:41.701Z,17.65
2023-04-14T00:58:08.893Z,19.17
2023-04-14T01:00:36.226Z,16.27
2023-04-14T01:03:02.831Z,14.85
2023-04-14T01:05:29.555Z,17.13
2023-04-14T01:07:56.054Z,17.30
2023-04-14T01:10:24.120Z,18.17
2023-04-14T01:12:50.486Z,19.38
2023-04-14T01:15:32.707Z,16.42
2023-04-14T01:18:02.262Z,22.67
2023-04-14T01:20:33.087Z,27.70
2023-04-14T01:23:06.358Z,25.75
2023-04-14T01:25:48.092Z,19.58
2023-04-14T01:28:20.711Z,20.85
2023-04-14T01:30:53.276Z,16.00
2023-04-14T01:33:22.458Z,21.00
2023-04-14T01:35:54.446Z,24.60
2023-04-14T01:38:25.661Z,17.55
2023-04-14T01:40:54.142Z,19.27
2023-04-14T01:43:24.770Z,15.82
2023-04-14T01:45:52.715Z,16.48
2023-04-14T01:48:19.665Z,18.75
2023-04-14T01:50:47.006Z,16.92
2023-04-14T01:53:15.243Z,17.73
2023-04-14T01:55:44.090Z,16.10
2023-04-14T01:58:11.094Z,19.70
2023-04-14T02:00:38.262Z,19.38
2023-04-14T02:03:05.479Z,19.52
2023-04-14T02:05:35.991Z,13.93
2023-04-14T02:08:03.432Z,21.27
2023-04-14T02:10:34.115Z,19.50
2023-04-14T02:13:01.587Z,17.85
2023-04-14T02:15:29.248Z,20.77
2023-04-14T02:17:57.108Z,18.17
2023-04-14T02:20:23.801Z,19.67
2023-04-14T02:22:50.379Z,21.25
2023-04-14T02:25:16.996Z,19.83
2023-04-14T02:27:49.802Z,24.95
2023-04-14T02:30:18.259Z,18.52
2023-04-14T02:32:49.534Z,17.45
2023-04-14T02:35:18.557Z,16.67
2023-04-14T02:37:53.821Z,18.67
2023-04-14T02:40:27.489Z,17.70
2023-04-14T02:42:57.606Z,18.95
2023-04-14T02:45:26.634Z,22.90
2023-04-14T02:47:54.482Z,22.80
2023-04-14T02:50:21.623Z,23.73
2023-04-14T02:52:51.702Z,18.88
2023-04-14T02:55:21.854Z,18.85
2023-04-14T02:57:50.083Z,19.03
2023-04-14T03:00:16.996Z,19.20
2023-04-14T03:02:43.842Z,21.50
2023-04-14T03:05:10.831Z,16.20
2023-04-14T03:07:37.628Z,21.40
2023-04-14T03:10:05.170Z,21.80
2023-04-14T03:12:33.022Z,19.52
2023-04-14T03:15:02.453Z,20.33
2023-04-14T03:17:29.258Z,24.70
2023-04-14T03:19:56.531Z,20.25
2023-04-14T03:22:23.432Z,21.90
2023-04-14T03:24:51.064Z,22.67
2023-04-14T03:27:22.067Z,24.58
2023-04-14T03:32:16.034Z,23.73
2023-04-14T03:34:43.376Z,26.88
2023-04-14T03:37:10.281Z,26.08
2023-04-14T03:39:38.784Z,27.92
2023-04-14T03:42:08.764Z,26.52
2023-04-14T03:44:36.741Z,25.30
2023-04-14T03:47:08.026Z,25.30
2023-04-14T03:49:37.390Z,23.48
2023-04-14T03:52:05.525Z,26.80
2023-04-14T03:54:36.234Z,25.02
2023-04-14T03:57:06.232Z,23.00
2023-04-14T03:59:33.993Z,23.27
2023-04-14T04:02:02.846Z,26.13
2023-04-14T04:04:30.984Z,25.77
2023-04-14T04:06:58.862Z,31.75
2023-04-14T04:09:28.103Z,24.40
2023-04-14T04:11:57.996Z,22.67
2023-04-14T04:14:25.459Z,25.35
2023-04-14T04:16:53.826Z,25.13
2023-04-14T04:19:22.012Z,26.80
2023-04-14T04:21:52.667Z,28.17
2023-04-14T04:24:20.153Z,26.98
2023-04-14T04:26:47.067Z,27.90
2023-04-14T04:29:13.521Z,24.73
2023-04-14T04:31:40.367Z,28.02
2023-04-14T04:34:07.853Z,32.17
2023-04-14T04:36:37.617Z,31.95
2023-04-14T04:39:04.249Z,29.52
2023-04-14T04:41:30.944Z,37.63
2023-04-14T04:43:59.059Z,33.85
2023-04-14T04:46:44.347Z,32.80
2023-04-14T04:49:10.870Z,34.95
2023-04-14T04:51:37.693Z,36.42
2023-04-14T04:54:04.283Z,32.63
2023-04-14T04:56:30.973Z,29.42
2023-04-14T04:58:57.390Z,35.15
2023-04-14T05:01:23.913Z,31.52
2023-04-14T05:03:50.624Z,32.47
2023-04-14T05:06:17.151Z,25.33
2023-04-14T05:08:43.609Z,28.48
2023-04-14T05:11:10.026Z,28.85
2023-04-14T05:13:36.465Z,33.30
2023-04-14T05:16:07.159Z,28.27
2023-04-14T05:18:34.231Z,26.38
2023-04-14T05:21:06.616Z,31.55
2023-04-14T05:23:35.596Z,26.00
2023-04-14T05:26:22.264Z,33.33
2023-04-14T05:28:48.979Z,27.33
2023-04-14T05:31:15.616Z,26.55
2023-04-14T05:33:42.176Z,22.63
2023-04-14T05:36:08.657Z,24.77
2023-04-14T05:38:41.636Z,29.67
2023-04-14T05:41:08.167Z,28.13
2023-04-14T05:43:37.269Z,24.45
2023-04-14T05:46:04.070Z,26.60
2023-04-14T05:48:32.333Z,28.13
2023-04-14T05:50:58.832Z,25.40
2023-04-14T05:53:25.396Z,28.45
2023-04-14T05:55:52.469Z,30.10
2023-04-14T05:58:19.579Z,25.10
2023-04-14T06:00:46.123Z,29.95
2023-04-14T06:03:12.840Z,33.40
2023-04-14T06:05:39.873Z,26.70
2023-04-14T06:08:06.304Z,29.38
2023-04-14T06:10:32.822Z,31.48
2023-04-14T06:12:59.384Z,29.00
2023-04-14T06:15:28.278Z,30.65
2023-04-14T06:17:54.842Z,30.85
2023-04-14T06:20:21.940Z,29.67
2023-04-14T06:22:48.498Z,27.98
2023-04-14T06:25:15.064Z,25.55
2023-04-14T06:27:44.120Z,28.13
2023-04-14T06:30:10.762Z,28.85
2023-04-14T06:32:37.297Z,28.77
2023-04-14T06:35:05.108Z,32.20
2023-04-14T06:37:32.252Z,33.80
2023-04-14T06:39:58.768Z,31.20
2023-04-14T06:42:25.710Z,31.42
2023-04-14T06:44:52.285Z,30.95
2023-04-14T06:47:19.771Z,34.70
2023-04-14T06:49:46.609Z,30.48
2023-04-14T06:52:13.053Z,33.72
2023-04-14T06:54:41.515Z,34.78
2023-04-14T06:57:10.949Z,35.90
2023-04-14T06:59:37.540Z,27.40
2023-04-14T07:02:04.230Z,30.50
2023-04-14T07:04:30.792Z,33.92
2023-04-14T07:07:01.094Z,34.80
2023-04-14T07:09:28.711Z,37.97
2023-04-14T07:11:55.994Z,35.97
2023-04-14T07:14:22.655Z,35.22
2023-04-14T07:16:49.869Z,40.85
2023-04-14T07:19:16.275Z,33.17
2023-04-14T07:21:44.149Z,34.15
2023-04-14T07:24:11.451Z,32.78
2023-04-14T07:26:38.581Z,32.22
2023-04-14T07:29:05.029Z,31.30
2023-04-14T07:31:35.809Z,34.05
2023-04-14T07:34:02.575Z,35.67
2023-04-14T07:36:30.558Z,31.60
2023-04-14T07:38:56.977Z,28.45
2023-04-14T07:41:24.292Z,33.90
2023-04-14T07:43:51.262Z,31.25
2023-04-14T07:46:17.761Z,32.03
2023-04-14T07:48:44.640Z,31.13
2023-04-14T07:51:12.173Z,28.55
2023-04-14T07:53:42.478Z,31.52
2023-04-14T07:56:09.434Z,30.50
2023-04-14T07:58:35.921Z,29.15
2023-04-14T08:01:03.034Z,32.20
2023-04-14T08:03:29.630Z,34.55
2023-04-14T08:05:57.574Z,33.47
2023-04-14T08:08:24.574Z,28.77
2023-04-14T08:10:51.159Z,33.47
2023-04-14T08:13:17.603Z,35.55
2023-04-14T08:15:44.212Z,32.92
2023-04-14T08:18:10.729Z,28.98
2023-04-14T08:20:38.118Z,25.77
2023-04-14T08:23:06.965Z,31.92
2023-04-14T08:25:33.508Z,28.33
2023-04-14T08:28:00.098Z,26.00
2023-04-14T08:30:27.096Z,26.10
2023-04-14T08:32:53.553Z,29.50
2023-04-14T08:35:37.567Z,26.63
2023-04-14T08:38:06.818Z,23.58
2023-04-14T08:40:38.337Z,24.98
2023-04-14T08:43:05.559Z,21.92
2023-04-14T08:45:32.746Z,24.00
2023-04-14T08:48:00.489Z,25.40
2023-04-14T08:50:32.084Z,22.17
2023-04-14T08:52:59.832Z,19.75
2023-04-14T08:55:26.747Z,22.83
2023-04-14T08:57:53.366Z,22.25
2023-04-14T09:00:22.106Z,22.40
2023-04-14T09:02:49.461Z,21.27
2023-04-14T09:05:19.021Z,22.08
2023-04-14T09:07:45.925Z,19.20
2023-04-14T09:10:12.525Z,19.10
2023-04-14T09:12:41.576Z,26.08
2023-04-14T09:15:08.763Z,15.82
2023-04-14T09:17:36.734Z,17.45
2023-04-14T09:20:36.616Z,21.58
2023-04-14T09:22:50.106Z,20.50
2023-04-14T09:25:18.709Z,17.23
2023-04-14T09:27:45.565Z,18.40
2023-04-14T09:30:12.194Z,17.98
2023-04-14T09:32:38.971Z,19.08
2023-04-14T09:35:06.411Z,16.77
2023-04-14T09:37:43.844Z,16.70
2023-04-14T09:40:11.244Z,28.35
2023-04-14T09:42:42.612Z,20.65
2023-04-14T09:45:09.666Z,18.45
2023-04-14T09:47:36.383Z,18.38
2023-04-14T09:50:04.889Z,16.63
2023-04-14T09:52:44.911Z,18.67
2023-04-14T09:55:15.669Z,16.55
2023-04-14T09:57:47.222Z,15.63
2023-04-14T10:00:18.044Z,17.90
2023-04-14T10:03:03.551Z,15.88
2023-04-14T10:05:34.769Z,14.93
2023-04-14T10:08:05.349Z,13.32
2023-04-14T10:10:34.644Z,12.75
2023-04-14T10:13:01.350Z,15.23
2023-04-14T10:15:28.205Z,14.48
2023-04-14T10:17:54.930Z,13.93
2023-04-14T10:20:21.855Z,11.32
2023-04-14T10:22:48.427Z,13.73
2023-04-14T10:25:15.258Z,10.77
2023-04-14T10:27:41.973Z,17.95
2023-04-14T10:30:09.084Z,11.05
2023-04-14T10:32:40.605Z,11.63
2023-04-14T10:35:09.424Z,12.95
2023-04-14T10:37:36.673Z,10.63
2023-04-14T10:40:08.139Z,12.68
2023-04-14T10:42:53.458Z,12.45
2023-04-14T10:45:20.116Z,9.55
2023-04-14T10:47:46.949Z,12.68
2023-04-14T10:50:14.689Z,11.45
2023-04-14T10:52:56.085Z,9.48
2023-04-14T10:55:26.885Z,9.25
2023-04-14T10:58:03.103Z,9.63
2023-04-14T11:00:31.928Z,9.30
2023-04-14T11:03:18.991Z,13.48
2023-04-14T11:05:48.509Z,9.30
2023-04-14T11:08:15.908Z,11.45
2023-04-14T11:10:47.483Z,13.13
2023-04-14T11:13:16.065Z,10.23
2023-04-14T11:15:45.140Z,12.35
2023-04-14T11:18:17.604Z,10.25
2023-04-14T11:20:44.396Z,12.95
2023-04-14T11:23:12.701Z,10.85
2023-04-14T11:25:40.424Z,12.55
2023-04-14T11:28:07.447Z,14.02
2023-04-14T11:30:33.842Z,13.38
2023-04-14T11:33:00.433Z,14.70
2023-04-14T11:35:27.748Z,14.68
2023-04-14T11:37:55.906Z,14.30
2023-04-14T11:40:22.844Z,22.33
2023-04-14T11:42:53.866Z,15.45
2023-04-14T11:45:20.298Z,14.38
2023-04-14T11:47:49.868Z,15.48
2023-04-14T11:50:20.169Z,18.08
2023-04-14T11:52:47.512Z,20.33
2023-04-14T11:55:14.991Z,18.00
2023-04-14T11:57:48.166Z,18.48
2023-04-14T12:00:14.955Z,18.88
2023-04-14T12:02:45.393Z,20.00
2023-04-14T12:05:14.516Z,17.05
2023-04-14T12:07:45.630Z,20.17
2023-04-14T12:10:12.554Z,17.00
2023-04-14T12:12:38.991Z,20.17
2023-04-14T12:15:05.734Z,23.13
2023-04-14T12:17:32.322Z,16.23
2023-04-14T12:19:58.863Z,16.38
2023-04-14T12:22:29.072Z,20.17
2023-04-14T12:24:55.935Z,23.90
2023-04-14T12:27:23.411Z,16.60
2023-04-14T12:29:50.263Z,17.20
2023-04-14T12:32:17.635Z,17.65
2023-04-14T12:34:57.883Z,21.38
2023-04-14T12:37:28.137Z,26.40
2023-04-14T12:39:58.534Z,17.70
2023-04-14T12:42:25.947Z,19.48
2023-04-14T12:44:55.910Z,15.27
2023-04-14T12:47:29.571Z,18.95
2023-04-14T12:49:56.999Z,19.23
2023-04-14T12:52:53.577Z,17.70
2023-04-14T12:55:27.542Z,19.48
2023-04-14T12:57:54.824Z,16.92
2023-04-14T13:00:22.159Z,19.92
2023-04-14T13:02:49.548Z,15.93
2023-04-14T13:05:16.362Z,19.05
2023-04-14T13:07:43.105Z,28.13
2023-04-14T13:10:10.914Z,22.23
2023-04-14T13:12:37.363Z,17.85
2023-04-14T13:15:04.655Z,22.02
2023-04-14T13:17:34.210Z,20.85
2023-04-14T13:20:01.056Z,25.02
2023-04-14T13:22:27.452Z,21.90
2023-04-14T13:24:54.047Z,21.48
2023-04-14T13:27:20.669Z,17.38
2023-04-14T13:29:49.983Z,20.15
2023-04-14T13:32:16.593Z,22.50
2023-04-14T13:34:44.043Z,19.30
2023-04-14T13:37:10.638Z,19.73
2023-04-14T13:39:37.482Z,24.10
2023-04-14T13:42:04.537Z,20.58
2023-04-14T13:44:32.575Z,20.77
2023-04-14T13:47:02.747Z,20.50
2023-04-14T13:49:30.151Z,21.15
2023-04-14T13:51:56.589Z,22.13
2023-04-14T13:54:23.034Z,25.50
2023-04-14T13:56:49.643Z,24.08
2023-04-14T13:59:17.320Z,22.70
2023-04-14T14:01:43.907Z,26.73
2023-04-14T14:04:13.321Z,24.92
2023-04-14T14:06:39.919Z,21.13
2023-04-14T14:09:07.040Z,21.02
2023-04-14T14:11:34.291Z,18.85
2023-04-14T14:14:00.850Z,18.70
2023-04-14T14:18:57.368Z,18.20
2023-04-14T14:21:23.851Z,23.38
2023-04-14T14:23:50.328Z,20.33
2023-04-14T14:26:16.836Z,21.15
2023-04-14T14:28:44.522Z,21.98
2023-04-14T14:31:11.120Z,19.60
2023-04-14T14:33:38.110Z,22.23
2023-04-14T14:36:05.023Z,20.33
2023-04-14T14:38:33.761Z,20.13
2023-04-14T14:41:00.185Z,20.60
2023-04-14T14:43:26.635Z,17.70
2023-04-14T14:45:54.649Z,17.77
2023-04-14T14:48:21.198Z,19.15
2023-04-14T14:50:47.749Z,18.17
2023-04-14T14:53:14.165Z,15.18
2023-04-14T14:55:40.729Z,13.52
2023-04-14T14:58:08.429Z,17.25
2023-04-14T15:00:35.438Z,15.00
2023-04-14T15:03:02.184Z,14.02
2023-04-14T15:05:28.786Z,13.82
2023-04-14T15:07:55.482Z,12.85
2023-04-14T15:10:21.887Z,13.95
2023-04-14T15:12:48.455Z,12.13
2023-04-14T15:15:14.916Z,12.93
2023-04-14T15:17:41.566Z,12.50
2023-04-14T15:20:08.474Z,10.30
2023-04-14T15:22:35.926Z,10.02
2023-04-14T15:25:02.400Z,9.55
2023-04-14T15:27:28.874Z,12.10
2023-04-14T15:29:56.441Z,14.52
2023-04-14T15:32:26.534Z,15.25
2023-04-14T15:34:56.089Z,15.82
2023-04-14T15:37:22.542Z,16.17
2023-04-14T15:39:48.965Z,17.55
2023-04-14T15:42:15.590Z,19.33
2023-04-14T15:44:41.981Z,18.27
2023-04-14T15:47:08.367Z,20.20
2023-04-14T15:49:34.816Z,20.05
2023-04-14T15:52:01.852Z,24.08
2023-04-14T15:54:33.223Z,20.95
2023-04-14T15:56:59.620Z,20.33
2023-04-14T15:59:27.630Z,21.88
2023-04-14T16:01:54.288Z,20.13
2023-04-14T16:04:21.038Z,21.15
2023-04-14T16:06:47.858Z,22.38
2023-04-14T16:09:14.334Z,19.35
2023-04-14T16:11:43.792Z,19.98
2023-04-14T16:14:10.234Z,19.27
2023-04-14T16:16:36.847Z,17.55
2023-04-14T16:19:03.637Z,21.23
2023-04-14T16:21:30.230Z,18.83
2023-04-14T16:23:56.665Z,20.13
2023-04-14T16:26:25.128Z,24.10
2023-04-14T16:28:54.663Z,23.20
2023-04-14T16:31:21.421Z,22.27
2023-04-14T16:33:47.832Z,19.55
2023-04-14T16:36:14.276Z,24.88
2023-04-14T16:38:40.839Z,19.73
2023-04-14T16:41:07.232Z,20.20
2023-04-14T16:43:33.723Z,23.52
2023-04-14T16:46:03.941Z,19.23
2023-04-14T16:48:31.222Z,20.65
2023-04-14T16:50:57.996Z,21.35
2023-04-14T16:53:24.360Z,20.17
2023-04-14T16:55:50.811Z,20.85
2023-04-14T16:58:17.253Z,20.55
2023-04-14T17:00:43.628Z,22.88
2023-04-14T17:03:10.190Z,21.15
2023-04-14T17:05:36.862Z,22.80
2023-04-14T17:08:03.712Z,20.83
2023-04-14T17:10:31.211Z,23.23
2023-04-14T17:12:57.684Z,21.83
2023-04-14T17:15:24.093Z,31.27
2023-04-14T17:17:50.678Z,20.55
2023-04-14T17:20:17.138Z,24.05
2023-04-14T17:22:43.634Z,26.17
2023-04-14T17:25:10.919Z,22.02
2023-04-14T17:27:40.258Z,19.02
2023-04-14T17:30:10.246Z,17.63
2023-04-14T17:32:38.531Z,20.98
2023-04-14T17:35:05.149Z,20.60
2023-04-14T17:37:32.217Z,20.40
2023-04-14T17:39:59.323Z,18.55
2023-04-14T17:42:26.388Z,20.67
2023-04-14T17:44:52.840Z,21.65
2023-04-14T17:47:21.529Z,22.33
2023-04-14T17:49:49.185Z,23.58
2023-04-14T17:52:19.530Z,21.85
2023-04-14T17:54:46.436Z,23.15
2023-04-14T17:57:13.200Z,23.48
2023-04-14T17:59:41.504Z,18.85
2023-04-14T18:02:08.895Z,29.33
2023-04-14T18:04:35.860Z,18.65
2023-04-14T18:07:02.444Z,19.08
2023-04-14T18:09:29.020Z,20.63
2023-04-14T18:11:56.319Z,23.55
2023-04-14T18:14:22.797Z,19.95
2023-04-14T18:16:49.294Z,25.23
2023-04-14T18:19:15.806Z,19.08
2023-04-14T18:21:44.430Z,19.73
2023-04-14T18:26:42.007Z,16.42
2023-04-14T18:29:08.507Z,15.10
2023-04-14T18:31:35.279Z,21.27
2023-04-14T18:34:03.814Z,16.92
2023-04-14T18:36:30.599Z,19.23
2023-04-14T18:38:57.010Z,24.60
2023-04-14T18:41:23.496Z,19.00
2023-04-14T18:43:50.460Z,19.15
2023-04-14T18:46:17.445Z,15.00
2023-04-14T18:48:44.727Z,23.73
2023-04-14T18:51:11.773Z,20.80
2023-04-14T18:53:41.636Z,16.02
2023-04-14T18:56:08.275Z,19.25
2023-04-14T18:58:34.802Z,22.17
2023-04-14T19:01:01.777Z,21.95
2023-04-14T19:03:28.436Z,21.17
2023-04-14T19:05:55.403Z,23.23
2023-04-14T19:08:22.387Z,22.13
2023-04-14T19:10:49.139Z,20.70
2023-04-14T19:13:16.002Z,23.45
2023-04-14T19:15:42.878Z,22.55
2023-04-14T19:18:10.414Z,18.00
2023-04-14T19:20:37.620Z,27.30
2023-04-14T19:23:06.561Z,21.70
2023-04-14T19:25:35.076Z,30.55
2023-04-14T19:28:02.261Z,22.45
2023-04-14T19:30:29.216Z,19.83
2023-04-14T19:32:55.741Z,21.75
2023-04-14T19:35:22.489Z,21.60
2023-04-14T19:37:48.994Z,27.13
2023-04-14T19:40:15.658Z,26.17
2023-04-14T19:42:42.225Z,22.55
2023-04-14T19:45:12.153Z,24.48
2023-04-14T19:47:38.829Z,24.23
2023-04-14T19:50:05.351Z,26.67
2023-04-14T19:52:31.717Z,23.17
2023-04-14T19:54:58.373Z,20.17
2023-04-14T19:57:24.800Z,20.08
2023-04-14T19:59:51.316Z,24.65
2023-04-14T20:02:18.779Z,25.48
2023-04-14T20:04:46.810Z,22.75
2023-04-14T20:07:13.538Z,19.67
2023-04-14T20:09:45.047Z,24.90
2023-04-14T20:12:11.625Z,34.05
2023-04-14T20:14:38.287Z,21.00
2023-04-14T20:17:05.026Z,18.63
2023-04-14T20:19:32.307Z,17.25
2023-04-14T20:22:17.676Z,22.55
2023-04-14T20:24:44.689Z,28.45
2023-04-14T20:27:11.323Z,23.67
2023-04-14T20:29:37.808Z,21.40
2023-04-14T20:32:04.340Z,22.70
2023-04-14T20:34:30.782Z,24.10
2023-04-14T20:36:57.200Z,22.70
2023-04-14T20:39:23.754Z,21.95
2023-04-14T20:41:50.924Z,22.40
2023-04-14T20:44:17.449Z,24.48
2023-04-14T20:46:43.917Z,18.45
2023-04-14T20:49:11.160Z,21.30
2023-04-14T20:51:37.921Z,19.25
2023-04-14T20:54:04.811Z,18.77
2023-04-14T20:56:31.931Z,23.65
2023-04-14T20:58:58.765Z,48.05
2023-04-14T21:01:26.569Z,24.83
2023-04-14T21:03:54.184Z,20.73
2023-04-14T21:06:20.687Z,24.60
2023-04-14T21:08:47.664Z,21.00
2023-04-14T21:11:17.118Z,23.05
2023-04-14T21:15:29.806Z,24.95
2023-04-14T21:16:34.762Z,20.60
2023-04-14T21:19:02.430Z,24.90
2023-04-14T21:21:29.213Z,23.65
2023-04-14T21:23:55.785Z,25.15
2023-04-14T21:26:24.333Z,24.35
2023-04-14T21:28:50.932Z,20.73
2023-04-14T21:31:17.424Z,26.13
2023-04-14T21:33:43.834Z,19.55
2023-04-14T21:36:10.949Z,21.60
2023-04-14T21:38:37.844Z,27.98
2023-04-14T21:41:04.372Z,22.55
2023-04-14T21:43:30.918Z,19.85
2023-04-14T21:45:57.880Z,24.83
2023-04-14T21:48:27.716Z,21.13
2023-04-14T21:50:54.494Z,21.23
2023-04-14T21:53:20.896Z,20.52
2023-04-14T21:55:47.369Z,23.33
2023-04-14T21:58:31.820Z,27.98
2023-04-14T22:00:58.324Z,28.95
2023-04-14T22:03:25.136Z,19.90
2023-04-14T22:05:55.653Z,18.88
2023-04-14T22:08:24.032Z,24.08
2023-04-14T22:10:50.526Z,18.45
2023-04-14T22:13:16.962Z,24.08
2023-04-14T22:15:43.411Z,25.13
2023-04-14T22:18:10.706Z,16.95
2023-04-14T22:20:37.366Z,21.83
2023-04-14T22:23:03.825Z,17.33
2023-04-14T22:25:30.238Z,19.00
2023-04-14T22:27:57.330Z,21.30
2023-04-14T22:30:23.807Z,20.95
2023-04-14T22:32:50.486Z,14.75
2023-04-14T22:35:17.074Z,17.77
2023-04-14T22:37:43.453Z,20.20
2023-04-14T22:40:10.018Z,18.23
2023-04-14T22:42:36.722Z,15.85
2023-04-14T22:45:03.246Z,18.98
2023-04-14T22:47:29.792Z,17.48
2023-04-14T22:49:56.275Z,18.20
2023-04-14T22:52:22.881Z,15.07
2023-04-14T22:54:49.374Z,11.23
2023-04-14T22:57:16.053Z,18.17
2023-04-14T22:59:42.506Z,14.07
2023-04-14T23:02:08.940Z,16.90
2023-04-14T23:04:35.435Z,11.77
2023-04-14T23:07:01.977Z,16.73
2023-04-14T23:09:30.508Z,18.50
2023-04-14T23:11:58.029Z,12.75
2023-04-14T23:14:24.628Z,12.13
2023-04-14T23:16:51.117Z,11.23
2023-04-14T23:19:17.550Z,11.02
2023-04-14T23:21:44.078Z,13.60
2023-04-14T23:24:10.795Z,13.05
2023-04-14T23:26:37.270Z,14.02
2023-04-14T23:29:04.757Z,12.63
2023-04-14T23:31:33.729Z,12.43
2023-04-14T23:34:00.250Z,13.77
2023-04-14T23:36:26.828Z,15.27
2023-04-14T23:38:54.693Z,13.18
2023-04-14T23:41:22.013Z,18.02
2023-04-14T23:43:49.653Z,16.42
2023-04-14T23:46:16.337Z,15.75
2023-04-14T23:48:44.730Z,12.25
2023-04-14T23:51:15.543Z,15.57
2023-04-14T23:53:47.287Z,11.02
2023-04-14T23:56:13.806Z,15.80
2023-04-14T23:58:40.303Z,13.55
